Time;durP1;ratioP1;P1;durP2;ratioP2;P2;SDS_P1;SDS_P2;PMS_P1;PMS_P2;Temp;Humidity;BMP_temperature;BMP_pressure;BME280_temperature;BME280_humidity;BME280_pressure;Samples;Min_cycle;Max_cycle;Signal;HPM_P1;HPM_P2
2022/02/16 00:03:01;;;;;;;45.00;24.20;;;;;;;3.73;77.35;99487.27;214882;1276;140666;-70
2022/02/16 00:08:12;;;;;;;36.10;22.00;;;;;;;3.67;77.36;99470.10;214579;1276;141314;-74
2022/02/16 00:13:17;;;;;;;42.10;22.30;;;;;;;3.58;77.31;99456.08;215007;1276;141118;-81
2022/02/16 00:18:21;;;;;;;48.50;25.00;;;;;;;3.52;77.36;99453.65;214101;1276;142106;-82
2022/02/16 00:23:25;;;;;;;40.50;24.70;;;;;;;3.45;77.51;99446.52;213869;1276;140072;-83
2022/02/16 00:28:31;;;;;;;47.00;24.40;;;;;;;3.37;77.46;99437.77;214240;1276;141272;-79
2022/02/16 00:33:36;;;;;;;45.40;24.00;;;;;;;3.31;77.41;99432.65;214350;1275;141335;-79
2022/02/16 00:38:41;;;;;;;38.90;22.40;;;;;;;3.22;77.74;99433.28;213622;1276;141546;-75
2022/02/16 00:43:45;;;;;;;39.60;21.90;;;;;;;3.15;77.65;99426.10;213516;1276;142317;-81
2022/02/16 00:48:50;;;;;;;38.90;21.80;;;;;;;3.07;77.93;99429.71;213902;1276;142758;-82
2022/02/16 00:53:56;;;;;;;48.10;24.90;;;;;;;3.02;78.04;99425.80;213473;1276;145089;-80
2022/02/16 00:59:00;;;;;;;42.40;22.60;;;;;;;2.96;78.08;99422.15;213585;1276;141412;-85
2022/02/16 01:04:05;;;;;;;40.60;24.00;;;;;;;2.92;78.40;99421.44;214065;1276;142421;-84
2022/02/16 01:09:08;;;;;;;44.60;26.30;;;;;;;2.87;78.29;99415.17;213724;1276;141522;-77
2022/02/16 01:14:12;;;;;;;41.10;21.90;;;;;;;2.83;78.25;99410.19;213770;1276;141497;-75
2022/02/16 01:19:17;;;;;;;36.10;21.80;;;;;;;2.78;78.58;99405.63;214325;1276;140941;-78
2022/02/16 01:24:22;;;;;;;45.50;25.00;;;;;;;2.75;78.64;99401.89;214564;1274;141860;-69
2022/02/16 01:29:26;;;;;;;42.30;23.20;;;;;;;2.70;78.62;99397.86;213601;1276;141848;-72
2022/02/16 01:34:30;;;;;;;41.10;23.60;;;;;;;2.65;78.46;99393.20;215324;1276;141882;-76
2022/02/16 01:39:36;;;;;;;44.30;23.10;;;;;;;2.63;78.67;99388.29;214691;1276;140933;-75
2022/02/16 01:44:41;;;;;;;49.80;23.60;;;;;;;2.60;78.67;99380.77;214456;1276;141300;-79
2022/02/16 01:49:45;;;;;;;43.60;22.30;;;;;;;2.54;78.52;99366.80;215732;1276;141006;-79
2022/02/16 01:54:49;;;;;;;36.70;21.50;;;;;;;2.51;78.69;99367.10;215660;1275;142144;-73
2022/02/16 01:59:55;;;;;;;35.10;21.90;;;;;;;2.47;78.59;99361.16;215619;1276;162246;-76
2022/02/16 02:04:59;;;;;;;42.70;24.00;;;;;;;2.40;78.56;99357.64;215053;1276;140940;-73
2022/02/16 02:10:04;;;;;;;42.40;21.00;;;;;;;2.37;78.53;99357.50;214646;1276;141540;-83
2022/02/16 02:15:10;;;;;;;33.60;21.50;;;;;;;2.36;79.01;99349.89;213813;1276;153125;-83
2022/02/16 02:20:23;;;;;;;39.80;23.20;;;;;;;2.35;79.28;99337.61;214973;1276;141870;-84
2022/02/16 02:25:27;;;;;;;37.50;22.70;;;;;;;2.34;79.23;99326.92;214489;1276;142629;-76
2022/02/16 02:30:32;;;;;;;34.10;23.80;;;;;;;2.33;79.49;99322.39;214051;1276;141119;-88
2022/02/16 02:35:36;;;;;;;41.10;23.90;;;;;;;2.32;79.48;99311.41;213093;1276;142066;-81
2022/02/16 02:40:43;;;;;;;35.40;22.60;;;;;;;2.32;79.20;99309.23;213940;1276;141564;-79
2022/02/16 02:45:48;;;;;;;45.40;23.80;;;;;;;2.29;79.45;99310.42;214716;1276;141675;-83
2022/02/16 02:50:54;;;;;;;39.80;21.90;;;;;;;2.26;79.58;99305.73;212994;1276;140495;-73
2022/02/16 02:56:05;;;;;;;40.30;22.80;;;;;;;2.21;79.65;99302.91;214073;1276;141000;-87
2022/02/16 03:01:09;;;;;;;37.00;25.50;;;;;;;2.18;79.46;99300.02;214452;1276;140780;-84
2022/02/16 03:06:16;;;;;;;36.70;23.90;;;;;;;2.17;79.92;99298.06;214539;1276;140646;-74
2022/02/16 03:11:21;;;;;;;43.30;25.50;;;;;;;2.16;79.84;99295.50;213914;1276;141182;-79
2022/02/16 03:16:28;;;;;;;48.80;25.40;;;;;;;2.13;79.74;99286.92;213782;1275;140951;-78
2022/02/16 03:21:33;;;;;;;42.10;22.60;;;;;;;2.10;79.91;99284.31;213418;1277;141518;-79
2022/02/16 03:26:38;;;;;;;41.30;26.00;;;;;;;2.09;80.15;99284.79;214343;1276;140100;-80
2022/02/16 03:31:43;;;;;;;46.20;26.40;;;;;;;2.10;80.07;99288.48;213801;1276;448887;-77
2022/02/16 03:36:47;;;;;;;43.40;23.70;;;;;;;2.12;80.58;99288.08;214243;1276;140157;-72
2022/02/16 03:41:53;;;;;;;35.30;20.60;;;;;;;2.12;80.25;99283.20;215090;1277;140357;-76
2022/02/16 03:46:58;;;;;;;40.00;25.00;;;;;;;2.11;80.49;99274.58;214606;1276;140090;-76
2022/02/16 03:52:03;;;;;;;34.20;21.70;;;;;;;2.12;80.45;99266.57;215224;1275;141295;-74
2022/02/16 03:57:08;;;;;;;31.40;20.20;;;;;;;2.13;80.67;99264.60;215875;1276;140795;-74
2022/02/16 04:02:12;;;;;;;40.60;24.60;;;;;;;2.16;80.37;99265.12;215895;1276;141319;-77
2022/02/16 04:07:18;;;;;;;36.60;21.90;;;;;;;2.19;80.81;99268.02;215016;1276;140519;-76
2022/02/16 04:12:22;;;;;;;37.50;20.80;;;;;;;2.22;80.35;99264.03;215969;1276;141776;-84
2022/02/16 04:17:27;;;;;;;36.20;21.40;;;;;;;2.22;80.63;99260.08;215732;1276;140440;-82
2022/02/16 04:22:32;;;;;;;34.30;22.70;;;;;;;2.23;80.81;99247.90;215332;1276;140962;-83
2022/02/16 04:27:37;;;;;;;40.30;22.30;;;;;;;2.24;80.75;99239.86;214160;1276;140656;-80
2022/02/16 04:32:42;;;;;;;42.60;24.80;;;;;;;2.24;80.60;99235.16;213931;1276;141611;-84
2022/02/16 04:37:49;;;;;;;39.50;22.70;;;;;;;2.23;80.79;99227.79;213284;1276;141153;-83
2022/02/16 04:42:53;;;;;;;32.40;21.90;;;;;;;2.22;80.62;99226.16;214589;1276;140532;-83
2022/02/16 04:47:59;;;;;;;41.70;23.40;;;;;;;2.20;81.09;99223.69;214207;1276;140370;-85
2022/02/16 04:53:03;;;;;;;36.70;22.60;;;;;;;2.20;80.81;99213.61;213979;1276;140930;-84
2022/02/16 04:58:09;;;;;;;33.50;21.60;;;;;;;2.17;80.85;99207.61;213861;1276;140705;-75
2022/02/16 05:03:13;;;;;;;35.10;21.20;;;;;;;2.12;80.66;99208.60;214521;1276;140928;-77
2022/02/16 05:08:18;;;;;;;31.00;17.30;;;;;;;2.10;80.86;99209.56;213746;1276;141224;-81
2022/02/16 05:13:23;;;;;;;42.70;23.40;;;;;;;2.08;80.73;99204.42;214336;1276;140396;-73
2022/02/16 05:18:28;;;;;;;33.60;20.10;;;;;;;2.07;81.02;99193.86;214044;1276;140433;-83
2022/02/16 05:23:32;;;;;;;38.80;23.60;;;;;;;2.07;81.08;99182.73;213888;1276;140517;-87
2022/02/16 05:28:40;;;;;;;35.80;20.30;;;;;;;2.08;80.97;99170.31;214391;1276;161867;-71
2022/02/16 05:33:44;;;;;;;37.10;20.40;;;;;;;2.08;81.05;99160.58;213560;1276;139763;-72
2022/02/16 05:38:49;;;;;;;33.80;20.70;;;;;;;2.13;80.99;99152.67;214876;1276;140422;-71
2022/02/16 05:43:54;;;;;;;33.80;19.80;;;;;;;2.19;81.27;99145.89;214787;1274;140775;-70
2022/02/16 05:48:59;;;;;;;37.40;21.50;;;;;;;2.25;81.15;99147.05;213538;1276;245333;-70
2022/02/16 05:54:07;;;;;;;37.90;20.30;;;;;;;2.29;80.97;99140.40;213768;1276;141031;-73
2022/02/16 05:59:12;;;;;;;39.20;23.40;;;;;;;2.34;81.02;99130.43;215783;1276;141187;-77
2022/02/16 06:04:17;;;;;;;38.80;24.40;;;;;;;2.39;81.08;99138.46;215859;1276;141707;-77
2022/02/16 06:09:20;;;;;;;35.90;21.50;;;;;;;2.40;81.09;99136.61;215846;1276;141372;-76
2022/02/16 06:14:24;;;;;;;41.00;21.40;;;;;;;2.45;80.57;99131.55;215849;1276;139961;-75
2022/02/16 06:19:29;;;;;;;32.40;18.00;;;;;;;2.50;80.81;99127.48;215743;1276;141043;-71
2022/02/16 06:24:34;;;;;;;20.40;13.50;;;;;;;2.61;80.29;99117.29;215146;1277;141452;-72
2022/02/16 06:29:38;;;;;;;29.50;18.10;;;;;;;2.71;80.20;99119.58;215001;1276;140829;-70
2022/02/16 06:34:45;;;;;;;29.00;18.20;;;;;;;2.83;80.54;99113.52;215204;1275;159869;-71
2022/02/16 06:39:52;;;;;;;28.90;17.60;;;;;;;2.93;80.39;99109.90;214765;1276;140282;-73
2022/02/16 06:44:59;;;;;;;25.70;16.60;;;;;;;3.05;79.99;99100.84;214674;1276;141045;-70
2022/02/16 06:50:05;;;;;;;24.40;15.10;;;;;;;3.18;79.89;99101.20;213852;1276;141946;-66
2022/02/16 06:55:12;;;;;;;22.40;14.80;;;;;;;3.28;79.84;99092.23;213980;1276;141496;-68
2022/02/16 07:00:16;;;;;;;23.20;14.80;;;;;;;3.36;79.55;99092.64;214311;1276;252485;-75
2022/02/16 07:05:21;;;;;;;23.10;14.30;;;;;;;3.52;79.49;99094.09;214037;1276;140792;-78
2022/02/16 07:10:26;;;;;;;19.80;12.70;;;;;;;3.72;79.25;99090.81;213677;1275;140738;-73
2022/02/16 07:15:31;;;;;;;15.40;10.10;;;;;;;3.95;78.92;99091.57;213982;1276;140525;-73
2022/02/16 07:20:38;;;;;;;20.40;11.90;;;;;;;4.16;78.41;99088.13;214328;1276;140451;-75
2022/02/16 07:25:46;;;;;;;18.20;11.80;;;;;;;4.39;78.44;99085.30;213772;1276;140447;-78
2022/02/16 07:30:52;;;;;;;17.40;11.60;;;;;;;4.59;77.83;99083.46;213629;1276;141887;-75
2022/02/16 07:35:57;;;;;;;13.50;9.80;;;;;;;4.84;77.47;99080.25;214301;1276;141853;-82
2022/02/16 07:41:07;;;;;;;15.70;12.10;;;;;;;5.40;77.42;99071.35;214214;1276;140641;-79
2022/02/16 07:46:12;;;;;;;17.60;11.30;;;;;;;6.01;77.13;99063.61;214606;1276;140594;-79
2022/02/16 07:51:16;;;;;;;15.00;9.60;;;;;;;6.55;76.13;99057.57;214312;1274;140940;-71
2022/02/16 07:56:22;;;;;;;14.00;9.00;;;;;;;6.96;75.50;99057.14;213453;1276;140143;-69
2022/02/16 08:01:30;;;;;;;12.00;8.70;;;;;;;7.22;74.77;99054.55;215335;1276;141441;-69
2022/02/16 08:06:35;;;;;;;11.90;8.10;;;;;;;7.49;74.31;99045.77;215431;1276;141186;-74
2022/02/16 08:11:42;;;;;;;10.10;6.80;;;;;;;7.67;73.32;99036.93;215683;1276;141037;-76
2022/02/16 08:16:47;;;;;;;12.70;8.50;;;;;;;7.71;72.39;99029.27;215811;1276;140051;-79
2022/02/16 08:21:57;;;;;;;10.40;6.70;;;;;;;7.59;72.23;99023.14;215768;1276;141221;-74
2022/02/16 08:27:02;;;;;;;10.70;6.60;;;;;;;7.59;72.15;99016.89;215639;1276;139286;-76
2022/02/16 08:32:06;;;;;;;11.10;8.00;;;;;;;7.56;71.85;99005.36;214543;1276;140475;-79
2022/02/16 08:37:12;;;;;;;10.70;6.80;;;;;;;7.41;71.27;98995.48;215836;1276;140623;-78
2022/02/16 08:42:18;;;;;;;9.90;7.00;;;;;;;7.24;71.31;98986.98;214880;1276;139788;-77
2022/02/16 08:47:22;;;;;;;7.10;5.90;;;;;;;7.09;71.10;98980.75;214247;1276;141226;-78
2022/02/16 08:52:26;;;;;;;8.00;5.90;;;;;;;7.05;70.87;98976.44;214070;1276;139797;-77
2022/02/16 08:57:29;;;;;;;11.10;5.90;;;;;;;7.11;70.71;98975.61;214024;1276;140686;-73
2022/02/16 09:02:35;;;;;;;7.40;4.60;;;;;;;7.10;70.65;98964.25;213018;1276;140352;-71
2022/02/16 09:07:39;;;;;;;12.00;6.80;;;;;;;7.17;70.52;98948.81;213688;1276;140702;-74
2022/02/16 09:12:43;;;;;;;12.80;7.90;;;;;;;7.29;70.23;98941.98;215439;1276;140687;-81
2022/02/16 09:17:47;;;;;;;15.30;8.00;;;;;;;7.38;69.73;98925.89;213252;1276;139414;-72
2022/02/16 09:22:51;;;;;;;32.00;17.10;;;;;;;7.45;69.38;98918.66;212831;1276;140886;-69
2022/02/16 09:27:56;;;;;;;70.80;37.60;;;;;;;7.54;69.44;98909.57;214256;1276;140616;-70
2022/02/16 09:33:05;;;;;;;11.10;9.30;;;;;;;7.64;69.30;98906.95;213613;1276;139424;-73
2022/02/16 09:38:10;;;;;;;10.70;8.70;;;;;;;7.76;69.23;98896.03;213153;1275;139627;-81
2022/02/16 09:43:25;;;;;;;5.70;5.10;;;;;;;7.84;68.40;98893.27;213350;1276;140182;-76
2022/02/16 09:48:33;;;;;;;7.00;4.70;;;;;;;7.90;68.69;98883.09;212799;1276;140850;-74
2022/02/16 09:53:37;;;;;;;4.40;3.30;;;;;;;8.05;68.32;98872.73;214544;1276;140054;-73
2022/02/16 09:58:45;;;;;;;10.30;5.10;;;;;;;8.24;68.09;98850.87;213769;1276;139790;-73
2022/02/16 10:04:09;;;;;;;6.20;4.30;;;;;;;8.34;67.86;98840.48;214287;1276;139500;-80
2022/02/16 10:09:38;;;;;;;8.30;3.70;;;;;;;8.46;67.25;98835.80;214435;1276;139509;-74
2022/02/16 10:14:46;;;;;;;7.00;4.40;;;;;;;8.71;67.24;98820.89;213378;1276;152184;-77
2022/02/16 10:20:00;;;;;;;7.90;4.30;;;;;;;8.94;67.10;98809.89;215600;1276;140561;-80
2022/02/16 10:25:14;;;;;;;5.80;4.00;;;;;;;9.09;66.51;98803.38;215852;1276;139812;-80
2022/02/16 10:30:18;;;;;;;9.60;5.30;;;;;;;9.14;66.13;98785.20;215656;1276;140874;-82
2022/02/16 10:35:33;;;;;;;6.00;3.90;;;;;;;9.27;65.82;98777.05;215388;1276;140714;-75
2022/02/16 10:40:37;;;;;;;5.40;4.10;;;;;;;9.42;65.43;98758.70;214174;1276;220970;-77
2022/02/16 10:45:47;;;;;;;6.30;4.00;;;;;;;9.54;65.28;98751.40;214710;1276;140765;-76
2022/02/16 10:50:51;;;;;;;6.70;3.70;;;;;;;9.67;64.75;98734.30;213635;1277;141179;-73
2022/02/16 10:55:57;;;;;;;5.00;3.60;;;;;;;9.74;64.36;98723.34;212919;1276;141244;-78
2022/02/16 11:01:02;;;;;;;3.60;2.90;;;;;;;9.88;64.28;98718.48;213508;1276;165107;-81
2022/02/16 11:06:08;;;;;;;3.30;3.00;;;;;;;10.01;63.99;98709.76;214559;1276;140097;-71
2022/02/16 11:11:14;;;;;;;6.00;2.30;;;;;;;10.06;63.70;98698.88;214943;1276;140960;-72
2022/02/16 11:16:28;;;;;;;3.90;2.40;;;;;;;10.02;63.23;98691.39;214078;1276;141469;-71
2022/02/16 11:21:33;;;;;;;5.40;2.70;;;;;;;10.05;62.88;98678.95;213964;1276;139939;-73
2022/02/16 11:26:45;;;;;;;3.60;2.70;;;;;;;10.19;62.82;98676.44;213493;1276;140565;-72
2022/02/16 11:31:50;;;;;;;3.70;2.70;;;;;;;10.34;62.56;98670.04;213536;1276;143498;-70
2022/02/16 11:36:58;;;;;;;5.20;2.80;;;;;;;10.45;62.26;98661.45;213278;1276;140804;-71
2022/02/16 11:42:04;;;;;;;4.20;2.90;;;;;;;10.48;62.12;98659.39;212723;1276;141768;-75
2022/02/16 11:47:09;;;;;;;3.60;3.30;;;;;;;10.40;61.90;98648.59;213560;1276;141395;-77
2022/02/16 11:52:45;;;;;;;2.90;2.70;;;;;;;10.28;61.77;98642.83;214492;1276;140028;-75
2022/02/16 11:57:53;;;;;;;2.70;2.50;;;;;;;10.36;62.05;98632.70;213845;1277;140901;-82
2022/02/16 12:02:59;;;;;;;3.80;2.50;;;;;;;10.65;61.80;98617.45;214030;1276;139744;-82
2022/02/16 12:08:21;;;;;;;4.30;3.50;;;;;;;10.86;61.50;98597.09;214794;1276;139729;-74
2022/02/16 12:13:29;;;;;;;4.30;2.40;;;;;;;11.03;61.02;98583.88;213933;1277;140887;-70
2022/02/16 12:18:36;;;;;;;3.00;2.30;;;;;;;10.98;60.74;98572.52;214069;1276;142173;-72
2022/02/16 12:23:48;;;;;;;2.00;1.90;;;;;;;10.94;60.89;98564.58;215608;1276;139767;-71
2022/02/16 12:29:01;;;;;;;2.70;2.30;;;;;;;11.00;60.72;98552.10;215790;1276;140918;-69
2022/02/16 12:34:13;;;;;;;3.50;2.30;;;;;;;11.00;60.32;98532.10;215766;1276;140696;-75
2022/02/16 12:39:18;;;;;;;2.50;1.90;;;;;;;10.93;60.12;98506.45;215779;1276;140129;-74
2022/02/16 12:44:31;;;;;;;3.60;2.70;;;;;;;10.79;60.04;98490.06;215792;1276;140915;-77
2022/02/16 12:49:36;;;;;;;2.30;2.10;;;;;;;10.63;60.13;98461.40;214955;1277;141508;-78
2022/02/16 12:54:41;;;;;;;6.00;3.30;;;;;;;10.55;59.96;98449.66;215611;1277;139831;-74
2022/02/16 13:05:33;;;;;;;;;;;;;;;10.65;59.97;98418.98;213562;1276;161794;-72
2022/02/16 13:10:38;;;;;;;3.50;2.80;;;;;;;10.63;60.23;98406.02;214287;1276;127069;-71
2022/02/16 13:15:45;;;;;;;5.60;3.80;;;;;;;10.41;60.01;98383.15;213195;1277;139588;-70
2022/02/16 13:21:15;;;;;;;6.10;3.70;;;;;;;10.14;60.00;98370.54;214478;1276;139960;-73
2022/02/16 13:26:19;;;;;;;5.70;3.20;;;;;;;9.99;60.20;98363.92;214124;1276;140022;-73
2022/02/16 13:31:28;;;;;;;5.90;3.60;;;;;;;9.95;60.50;98353.80;214240;1277;139537;-71
2022/02/16 13:36:38;;;;;;;4.40;3.30;;;;;;;9.97;60.54;98343.90;213927;1277;140573;-71
2022/02/16 13:41:52;;;;;;;4.40;4.00;;;;;;;9.97;60.66;98333.94;213111;1277;140371;-75
2022/02/16 13:47:04;;;;;;;5.80;3.60;;;;;;;9.97;60.58;98321.86;213795;1276;140580;-72
2022/02/16 13:52:11;;;;;;;6.40;3.80;;;;;;;9.88;60.62;98320.46;213573;1277;140014;-68
2022/02/16 13:57:18;;;;;;;4.00;2.40;;;;;;;9.80;60.70;98312.52;214672;1276;141354;-69
2022/02/16 14:02:24;;;;;;;4.10;3.20;;;;;;;9.72;60.61;98297.67;212923;1277;141216;-75
2022/02/16 14:07:31;;;;;;;4.40;3.00;;;;;;;9.69;60.64;98283.88;213855;1277;140655;-75
2022/02/16 14:12:50;;;;;;;6.70;4.10;;;;;;;9.66;60.74;98281.26;214417;1277;141004;-76
2022/02/16 14:17:56;;;;;;;4.10;3.00;;;;;;;9.57;60.55;98272.19;213511;1277;141410;-72
2022/02/16 14:23:05;;;;;;;4.40;3.50;;;;;;;9.50;60.78;98266.01;213462;1277;141920;-75
2022/02/16 14:28:09;;;;;;;3.90;3.20;;;;;;;9.46;60.90;98251.33;214545;1276;141725;-76
2022/02/16 14:33:13;;;;;;;5.80;2.90;;;;;;;9.42;60.77;98238.35;215993;1277;142139;-73
2022/02/16 14:38:23;;;;;;;;;;;;;;;9.36;60.90;98226.73;215516;1277;139697;-76
2022/02/16 14:43:28;;;;;;;4.40;2.60;;;;;;;9.32;60.99;98216.19;216210;1277;127019;-74
2022/02/16 14:48:33;;;;;;;6.70;4.50;;;;;;;9.30;60.99;98213.05;215625;1276;140594;-76
2022/02/16 14:53:39;;;;;;;7.70;2.80;;;;;;;9.24;61.02;98202.77;215773;1275;140522;-76
2022/02/16 14:58:44;;;;;;;4.20;2.70;;;;;;;9.18;61.08;98197.34;215729;1276;151792;-75
2022/02/16 15:03:50;;;;;;;3.00;2.40;;;;;;;9.12;61.06;98191.92;213623;1275;161170;-76
2022/02/16 15:08:54;;;;;;;3.80;2.30;;;;;;;9.05;61.03;98185.90;214009;1276;140906;-74
2022/02/16 15:14:00;;;;;;;3.50;2.60;;;;;;;8.98;61.26;98168.17;213098;1276;142194;-75
2022/02/16 15:19:05;;;;;;;3.70;3.00;;;;;;;8.91;61.35;98143.16;213279;1276;141547;-74
2022/02/16 15:24:10;;;;;;;2.30;1.70;;;;;;;8.84;61.65;98133.91;214702;1276;141349;-75
2022/02/16 15:29:14;;;;;;;4.70;2.60;;;;;;;8.74;61.61;98128.04;214479;1276;139299;-75
2022/02/16 15:34:18;;;;;;;5.10;2.60;;;;;;;8.62;61.92;98114.50;213046;1276;863613;-70
2022/02/16 15:39:23;;;;;;;6.00;3.30;;;;;;;8.51;61.85;98118.63;214519;1276;139331;-74
2022/02/16 15:44:27;;;;;;;3.60;2.90;;;;;;;8.42;62.16;98132.92;212789;1277;141477;-74
2022/02/16 15:49:42;;;;;;;5.50;3.20;;;;;;;8.34;62.37;98145.20;213194;1277;139547;-73
2022/02/16 15:54:47;;;;;;;7.70;3.30;;;;;;;8.26;62.58;98144.23;213585;1275;140200;-71
2022/02/16 15:59:51;;;;;;;4.80;3.70;;;;;;;8.21;62.53;98151.75;215191;1276;139683;-78
2022/02/16 16:04:56;;;;;;;4.00;3.60;;;;;;;8.16;62.75;98121.47;213260;1276;140994;-75
2022/02/16 16:10:01;;;;;;;4.40;3.20;;;;;;;8.10;62.85;98097.23;214234;1276;139353;-73
2022/02/16 16:15:07;;;;;;;5.90;4.00;;;;;;;8.05;63.00;98088.61;212962;1276;140474;-66
2022/02/16 16:20:13;;;;;;;9.10;4.00;;;;;;;7.99;63.27;98086.02;213881;1276;140256;-69
2022/02/16 16:25:19;;;;;;;7.10;4.20;;;;;;;7.95;63.45;98080.76;214049;1276;140178;-75
2022/02/16 16:30:24;;;;;;;6.70;4.40;;;;;;;7.91;63.45;98072.31;214285;1276;139524;-72
2022/02/16 16:35:28;;;;;;;5.40;4.00;;;;;;;7.84;64.33;98081.13;213944;1276;140769;-74
2022/02/16 16:40:37;;;;;;;7.30;4.00;;;;;;;7.74;64.57;98081.96;214928;1276;140765;-77
2022/02/16 16:45:42;;;;;;;5.30;3.70;;;;;;;7.66;65.13;98092.16;215898;1276;141217;-78
2022/02/16 16:50:51;;;;;;;6.40;3.80;;;;;;;7.58;65.46;98090.27;215905;1276;151623;-75
2022/02/16 16:55:59;;;;;;;5.00;3.40;;;;;;;7.56;65.29;98088.88;215708;1276;139956;-81
2022/02/16 17:01:07;;;;;;;4.90;3.60;;;;;;;7.58;65.64;98087.30;214994;1276;140549;-76
2022/02/16 17:06:11;;;;;;;7.90;3.60;;;;;;;7.59;66.05;98090.02;215516;1276;139915;-73
2022/02/16 17:11:16;;;;;;;4.20;3.30;;;;;;;7.58;65.83;98078.48;214063;1276;151816;-74
2022/02/16 17:16:20;;;;;;;4.60;3.20;;;;;;;7.58;66.14;98084.42;214003;1276;140689;-70
2022/02/16 17:21:25;;;;;;;3.80;2.80;;;;;;;7.57;66.60;98092.64;214621;1276;141163;-68
2022/02/16 17:26:29;;;;;;;7.70;2.90;;;;;;;7.52;66.70;98081.15;214517;1276;142111;-73
2022/02/16 17:31:36;;;;;;;6.20;2.90;;;;;;;7.44;67.15;98095.73;214469;1276;142314;-72
2022/02/16 17:36:40;;;;;;;;;;;;;;;7.38;67.57;98091.33;213709;1276;141163;-72
2022/02/16 17:41:46;;;;;;;2.50;1.90;;;;;;;7.28;68.18;98092.06;214149;1276;127476;-68
2022/02/16 17:46:49;;;;;;;4.80;2.30;;;;;;;7.20;68.44;98087.64;213043;1276;141914;-70
2022/02/16 17:51:56;;;;;;;5.10;2.80;;;;;;;7.16;68.66;98066.89;213941;1276;140904;-69
2022/02/16 17:57:01;;;;;;;3.70;3.10;;;;;;;7.17;69.05;98048.77;212992;1276;141205;-70
2022/02/16 18:02:06;;;;;;;2.60;1.90;;;;;;;7.20;68.99;98038.61;213057;1276;142934;-70
2022/02/16 18:07:11;;;;;;;2.20;2.10;;;;;;;7.21;69.13;98031.15;214012;1276;141899;-73
2022/02/16 18:12:16;;;;;;;1.40;1.30;;;;;;;7.23;69.28;98023.11;213923;1276;142281;-69
2022/02/16 18:17:21;;;;;;;2.50;1.70;;;;;;;7.26;68.92;98017.89;214107;1276;141438;-72
2022/02/16 18:22:29;;;;;;;3.10;2.10;;;;;;;7.31;68.87;98021.38;213725;1276;140502;-68
2022/02/16 18:27:34;;;;;;;5.30;1.70;;;;;;;7.35;69.02;98012.52;214231;1276;140757;-68
2022/02/16 18:32:38;;;;;;;3.80;2.40;;;;;;;7.38;68.68;98019.23;213197;1276;140972;-70
2022/02/16 18:37:43;;;;;;;2.60;1.50;;;;;;;7.42;68.83;98024.92;214915;1276;141054;-67
2022/02/16 18:42:47;;;;;;;4.50;2.80;;;;;;;7.44;68.70;98020.38;214020;1276;141124;-68
2022/02/16 18:47:51;;;;;;;3.50;2.30;;;;;;;7.39;68.94;98023.27;215671;1276;142386;-69
2022/02/16 18:52:57;;;;;;;7.70;2.80;;;;;;;7.30;69.72;98025.83;215663;1276;141859;-76
2022/02/16 18:58:02;;;;;;;3.40;2.10;;;;;;;7.20;69.82;98026.32;215621;1276;142218;-71
2022/02/16 19:03:06;;;;;;;2.60;2.10;;;;;;;7.14;70.44;98019.64;215264;1276;163339;-73
2022/02/16 19:08:10;;;;;;;3.00;2.60;;;;;;;7.08;70.82;97994.64;215392;1276;144687;-68
2022/02/16 19:13:15;;;;;;;5.60;2.70;;;;;;;7.03;71.12;97985.73;214968;1276;140193;-72
2022/02/16 19:18:23;;;;;;;5.20;2.50;;;;;;;7.01;71.31;97982.10;214162;1276;140326;-72
2022/02/16 19:23:35;;;;;;;3.90;2.40;;;;;;;7.01;71.07;97963.98;213740;1276;141543;-69
2022/02/16 19:28:40;;;;;;;6.30;3.70;;;;;;;7.00;71.62;97946.14;213912;1276;142460;-68
2022/02/16 19:33:48;;;;;;;4.70;3.00;;;;;;;7.01;71.70;97942.80;213564;1276;141796;-74
2022/02/16 19:38:52;;;;;;;2.60;1.60;;;;;;;7.02;71.48;97927.75;213708;1276;160826;-72
2022/02/16 19:43:56;;;;;;;4.60;1.70;;;;;;;7.06;71.91;97916.95;213206;1276;141342;-74
2022/02/16 19:49:02;;;;;;;4.60;3.40;;;;;;;7.11;71.91;97901.30;213642;1276;140412;-74
2022/02/16 19:54:07;;;;;;;5.60;3.20;;;;;;;7.15;71.54;97898.35;214549;1276;139745;-75
2022/02/16 19:59:12;;;;;;;3.60;2.90;;;;;;;7.21;71.62;97896.02;213764;1276;140412;-79
2022/02/16 20:04:18;;;;;;;4.20;1.90;;;;;;;7.27;71.69;97878.77;214463;1274;140407;-74
2022/02/16 20:09:26;;;;;;;5.10;2.80;;;;;;;7.32;71.78;97872.36;213881;1276;140205;-72
2022/02/16 20:14:29;;;;;;;;;;;;;;;7.36;71.62;97862.83;214034;1276;142253;-77
2022/02/16 20:19:34;;;;;;;3.30;2.20;;;;;;;7.39;71.34;97847.19;214066;1276;127446;-75
2022/02/16 20:24:38;;;;;;;2.50;2.10;;;;;;;7.41;71.39;97827.59;213151;1276;141038;-76
2022/02/16 20:29:46;;;;;;;5.30;2.10;;;;;;;7.41;71.49;97815.55;214220;1276;141500;-74
2022/02/16 20:34:54;;;;;;;5.40;1.90;;;;;;;7.42;71.45;97819.38;214096;1276;141214;-75
2022/02/16 20:40:01;;;;;;;2.90;1.80;;;;;;;7.44;71.53;97804.38;214439;1276;141009;-75
2022/02/16 20:45:07;;;;;;;3.30;2.50;;;;;;;7.44;71.44;97799.02;214575;1276;143932;-74
2022/02/16 20:50:16;;;;;;;2.30;2.10;;;;;;;7.46;71.00;97794.48;215223;1276;140397;-70
2022/02/16 20:55:21;;;;;;;3.80;2.50;;;;;;;7.49;71.31;97783.61;215692;1276;140560;-70
2022/02/16 21:00:25;;;;;;;5.10;2.60;;;;;;;7.51;71.34;97770.73;214885;1276;141090;-75
2022/02/16 21:05:30;;;;;;;3.10;2.20;;;;;;;7.50;70.93;97755.94;215738;1276;140257;-70
2022/02/16 21:10:35;;;;;;;3.60;2.20;;;;;;;7.49;70.96;97749.41;215753;1276;141156;-73
2022/02/16 21:15:40;;;;;;;3.20;2.20;;;;;;;7.47;70.88;97739.23;215773;1276;140170;-72
2022/02/16 21:20:45;;;;;;;2.90;1.90;;;;;;;7.45;71.24;97716.85;213831;1276;140662;-72
2022/02/16 21:25:50;;;;;;;2.40;1.40;;;;;;;7.40;71.08;97712.80;213200;1276;140433;-71
2022/02/16 21:30:55;;;;;;;2.60;1.70;;;;;;;7.37;70.86;97701.24;213733;1276;141574;-72
2022/02/16 21:35:59;;;;;;;4.00;1.60;;;;;;;7.34;71.48;97689.74;213777;1276;140101;-68
2022/02/16 21:41:04;;;;;;;3.30;1.80;;;;;;;7.32;71.38;97698.92;213643;1276;140686;-77
2022/02/16 21:46:10;;;;;;;2.60;1.70;;;;;;;7.28;71.62;97716.73;213215;1276;139878;-78
2022/02/16 21:51:17;;;;;;;4.70;2.30;;;;;;;7.23;71.27;97707.92;213196;1276;141169;-73
2022/02/16 21:56:22;;;;;;;2.00;1.40;;;;;;;7.15;71.47;97702.39;213269;1274;142530;-73
2022/02/16 22:01:27;;;;;;;3.20;2.20;;;;;;;7.10;71.24;97690.77;213009;1276;140613;-74
2022/02/16 22:06:32;;;;;;;3.70;1.70;;;;;;;7.08;71.74;97696.38;213419;1276;140650;-72
2022/02/16 22:11:36;;;;;;;3.50;1.50;;;;;;;7.09;71.76;97702.73;214029;1276;140962;-70
2022/02/16 22:16:41;;;;;;;2.50;1.50;;;;;;;7.14;71.84;97693.11;213194;1276;140727;-74
2022/02/16 22:21:54;;;;;;;2.40;1.80;;;;;;;7.18;72.05;97692.11;213790;1276;140364;-74
2022/02/16 22:26:58;;;;;;;2.20;1.90;;;;;;;7.21;71.87;97689.95;214258;1276;140028;-72
2022/02/16 22:32:05;;;;;;;3.00;1.90;;;;;;;7.25;72.19;97680.21;213165;1276;140611;-71
2022/02/16 22:37:11;;;;;;;3.50;1.90;;;;;;;7.28;72.14;97663.52;214644;1276;143405;-70
2022/02/16 22:42:16;;;;;;;3.10;1.60;;;;;;;7.32;72.02;97642.64;214258;1276;141092;-67
2022/02/16 22:47:23;;;;;;;2.60;1.40;;;;;;;7.36;72.12;97631.11;215119;1276;142475;-67
2022/02/16 22:52:27;;;;;;;26.50;16.60;;;;;;;7.38;72.43;97618.98;214809;1276;141485;-74
2022/02/16 22:57:32;;;;;;;7.10;4.70;;;;;;;7.42;72.38;97603.66;216032;1276;140247;-76
2022/02/16 23:13:23;;;;;;;4.60;2.40;;;;;;;7.48;72.50;97555.05;215231;1275;141632;-75
2022/02/16 23:18:28;;;;;;;2.40;1.60;;;;;;;7.50;72.39;97530.98;213361;1276;141682;-75
2022/02/16 23:23:33;;;;;;;2.60;1.70;;;;;;;7.50;72.23;97518.35;213544;1276;140907;-71
2022/02/16 23:28:39;;;;;;;2.60;1.80;;;;;;;7.50;72.44;97496.77;213153;1276;140404;-69
2022/02/16 23:33:45;;;;;;;2.60;2.20;;;;;;;7.49;72.84;97434.27;213238;1276;140227;-82
2022/02/16 23:38:50;;;;;;;2.50;2.30;;;;;;;7.47;72.70;97434.91;214194;1274;140086;-80
2022/02/16 23:43:54;;;;;;;4.50;1.90;;;;;;;7.45;73.11;97416.67;212931;1276;140081;-77
2022/02/16 23:48:58;;;;;;;1.90;1.80;;;;;;;7.45;72.99;97408.77;213034;1276;140369;-74